sensor_id;sensor_type;location;lat;lon;timestamp;P1;durP1;ratioP1;P2;durP2;ratioP2
28844;SDS011;15976;47.938;7.758;2022-12-07T00:01:27;20.65;;;12.45;;
28844;SDS011;15976;47.938;7.758;2022-12-07T00:03:56;26.63;;;13.27;;
28844;SDS011;15976;47.938;7.758;2022-12-07T00:06:34;21.90;;;12.02;;
28844;SDS011;15976;47.938;7.758;2022-12-07T00:09:03;20.50;;;12.15;;
28844;SDS011;15976;47.938;7.758;2022-12-07T00:11:31;23.33;;;13.45;;
28844;SDS011;15976;47.938;7.758;2022-12-07T00:13:59;21.60;;;12.40;;
28844;SDS011;15976;47.938;7.758;2022-12-07T00:16:30;24.73;;;13.25;;
28844;SDS011;15976;47.938;7.758;2022-12-07T00:18:58;21.70;;;12.07;;
28844;SDS011;15976;47.938;7.758;2022-12-07T00:21:26;25.55;;;13.70;;
28844;SDS011;15976;47.938;7.758;2022-12-07T00:23:55;19.88;;;12.15;;
28844;SDS011;15976;47.938;7.758;2022-12-07T00:26:24;20.55;;;11.95;;
28844;SDS011;15976;47.938;7.758;2022-12-07T00:28:54;22.70;;;12.50;;
28844;SDS011;15976;47.938;7.758;2022-12-07T00:31:24;20.38;;;12.10;;
28844;SDS011;15976;47.938;7.758;2022-12-07T00:33:57;26.02;;;13.25;;
28844;SDS011;15976;47.938;7.758;2022-12-07T00:36:25;25.90;;;13.52;;
28844;SDS011;15976;47.938;7.758;2022-12-07T00:38:53;24.42;;;12.63;;
28844;SDS011;15976;47.938;7.758;2022-12-07T00:41:22;23.38;;;13.27;;
28844;SDS011;15976;47.938;7.758;2022-12-07T00:43:50;24.85;;;13.40;;
28844;SDS011;15976;47.938;7.758;2022-12-07T00:46:18;23.25;;;12.77;;
28844;SDS011;15976;47.938;7.758;2022-12-07T00:48:46;23.65;;;12.63;;
28844;SDS011;15976;47.938;7.758;2022-12-07T00:51:15;24.08;;;13.35;;
28844;SDS011;15976;47.938;7.758;2022-12-07T00:53:43;26.23;;;13.80;;
28844;SDS011;15976;47.938;7.758;2022-12-07T00:56:12;23.08;;;13.20;;
28844;SDS011;15976;47.938;7.758;2022-12-07T00:58:41;24.05;;;13.07;;
28844;SDS011;15976;47.938;7.758;2022-12-07T01:01:09;23.88;;;13.77;;
28844;SDS011;15976;47.938;7.758;2022-12-07T01:03:37;24.52;;;12.75;;
28844;SDS011;15976;47.938;7.758;2022-12-07T01:06:04;27.73;;;14.45;;
28844;SDS011;15976;47.938;7.758;2022-12-07T01:08:32;28.80;;;14.90;;
28844;SDS011;15976;47.938;7.758;2022-12-07T01:11:03;26.52;;;13.50;;
28844;SDS011;15976;47.938;7.758;2022-12-07T01:13:32;26.17;;;13.68;;
28844;SDS011;15976;47.938;7.758;2022-12-07T01:16:02;24.88;;;13.88;;
28844;SDS011;15976;47.938;7.758;2022-12-07T01:18:31;24.95;;;14.15;;
28844;SDS011;15976;47.938;7.758;2022-12-07T01:21:00;24.15;;;14.27;;
28844;SDS011;15976;47.938;7.758;2022-12-07T01:23:30;26.05;;;14.77;;
28844;SDS011;15976;47.938;7.758;2022-12-07T01:25:58;23.20;;;14.23;;
28844;SDS011;15976;47.938;7.758;2022-12-07T01:28:27;30.75;;;16.02;;
28844;SDS011;15976;47.938;7.758;2022-12-07T01:33:29;28.58;;;14.93;;
28844;SDS011;15976;47.938;7.758;2022-12-07T01:36:05;30.77;;;15.40;;
28844;SDS011;15976;47.938;7.758;2022-12-07T01:38:33;29.48;;;15.10;;
28844;SDS011;15976;47.938;7.758;2022-12-07T01:41:01;29.83;;;15.73;;
28844;SDS011;15976;47.938;7.758;2022-12-07T01:43:29;30.25;;;15.52;;
28844;SDS011;15976;47.938;7.758;2022-12-07T01:45:58;29.88;;;15.10;;
28844;SDS011;15976;47.938;7.758;2022-12-07T01:48:30;29.83;;;15.40;;
28844;SDS011;15976;47.938;7.758;2022-12-07T01:51:01;27.95;;;15.98;;
28844;SDS011;15976;47.938;7.758;2022-12-07T01:53:35;29.80;;;15.93;;
28844;SDS011;15976;47.938;7.758;2022-12-07T01:56:04;33.17;;;16.13;;
28844;SDS011;15976;47.938;7.758;2022-12-07T01:58:33;29.60;;;16.50;;
28844;SDS011;15976;47.938;7.758;2022-12-07T02:01:01;30.25;;;15.70;;
28844;SDS011;15976;47.938;7.758;2022-12-07T02:03:32;31.75;;;17.27;;
28844;SDS011;15976;47.938;7.758;2022-12-07T02:06:11;31.33;;;17.13;;
28844;SDS011;15976;47.938;7.758;2022-12-07T02:08:42;31.83;;;16.60;;
28844;SDS011;15976;47.938;7.758;2022-12-07T02:11:10;32.00;;;16.95;;
28844;SDS011;15976;47.938;7.758;2022-12-07T02:13:38;33.15;;;16.73;;
28844;SDS011;15976;47.938;7.758;2022-12-07T02:19:04;31.73;;;16.80;;
28844;SDS011;15976;47.938;7.758;2022-12-07T02:30:06;29.20;;;15.77;;
28844;SDS011;15976;47.938;7.758;2022-12-07T02:35:35;28.75;;;14.07;;
28844;SDS011;15976;47.938;7.758;2022-12-07T02:38:31;26.00;;;13.48;;
28844;SDS011;15976;47.938;7.758;2022-12-07T02:41:22;24.52;;;13.60;;
28844;SDS011;15976;47.938;7.758;2022-12-07T02:43:52;29.23;;;13.73;;
28844;SDS011;15976;47.938;7.758;2022-12-07T02:46:33;26.92;;;13.57;;
28844;SDS011;15976;47.938;7.758;2022-12-07T02:49:07;27.77;;;13.45;;
28844;SDS011;15976;47.938;7.758;2022-12-07T02:51:38;20.65;;;11.55;;
28844;SDS011;15976;47.938;7.758;2022-12-07T02:54:11;21.83;;;11.82;;
28844;SDS011;15976;47.938;7.758;2022-12-07T03:18:58;12.65;;;7.38;;
28844;SDS011;15976;47.938;7.758;2022-12-07T03:21:53;12.90;;;7.60;;
28844;SDS011;15976;47.938;7.758;2022-12-07T03:24:33;13.75;;;8.07;;
28844;SDS011;15976;47.938;7.758;2022-12-07T03:29:43;14.93;;;8.50;;
28844;SDS011;15976;47.938;7.758;2022-12-07T03:32:33;18.95;;;9.70;;
28844;SDS011;15976;47.938;7.758;2022-12-07T03:35:06;16.13;;;9.43;;
28844;SDS011;15976;47.938;7.758;2022-12-07T03:37:40;16.70;;;9.63;;
28844;SDS011;15976;47.938;7.758;2022-12-07T03:40:27;17.63;;;9.77;;
28844;SDS011;15976;47.938;7.758;2022-12-07T03:42:56;19.27;;;9.50;;
28844;SDS011;15976;47.938;7.758;2022-12-07T03:45:28;16.33;;;8.75;;
28844;SDS011;15976;47.938;7.758;2022-12-07T03:50:59;12.52;;;7.00;;
28844;SDS011;15976;47.938;7.758;2022-12-07T03:53:40;13.85;;;8.45;;
28844;SDS011;15976;47.938;7.758;2022-12-07T03:56:15;16.05;;;8.45;;
28844;SDS011;15976;47.938;7.758;2022-12-07T03:58:42;15.05;;;8.48;;
28844;SDS011;15976;47.938;7.758;2022-12-07T04:01:10;13.88;;;7.82;;
28844;SDS011;15976;47.938;7.758;2022-12-07T04:03:37;14.77;;;7.30;;
28844;SDS011;15976;47.938;7.758;2022-12-07T04:06:04;15.15;;;8.93;;
28844;SDS011;15976;47.938;7.758;2022-12-07T04:08:32;15.63;;;8.35;;
28844;SDS011;15976;47.938;7.758;2022-12-07T04:10:59;11.98;;;7.05;;
28844;SDS011;15976;47.938;7.758;2022-12-07T04:13:26;11.98;;;6.57;;
28844;SDS011;15976;47.938;7.758;2022-12-07T04:15:53;13.10;;;7.07;;
28844;SDS011;15976;47.938;7.758;2022-12-07T04:18:20;12.70;;;6.28;;
28844;SDS011;15976;47.938;7.758;2022-12-07T04:20:47;8.80;;;5.88;;
28844;SDS011;15976;47.938;7.758;2022-12-07T04:23:15;10.18;;;6.10;;
28844;SDS011;15976;47.938;7.758;2022-12-07T04:25:42;10.07;;;6.18;;
28844;SDS011;15976;47.938;7.758;2022-12-07T04:28:09;8.35;;;5.40;;
28844;SDS011;15976;47.938;7.758;2022-12-07T04:30:36;10.63;;;6.07;;
28844;SDS011;15976;47.938;7.758;2022-12-07T04:33:03;10.63;;;5.90;;
28844;SDS011;15976;47.938;7.758;2022-12-07T04:35:30;10.93;;;5.72;;
28844;SDS011;15976;47.938;7.758;2022-12-07T04:37:57;10.13;;;6.10;;
28844;SDS011;15976;47.938;7.758;2022-12-07T04:40:24;12.02;;;6.93;;
28844;SDS011;15976;47.938;7.758;2022-12-07T04:42:51;12.07;;;7.25;;
28844;SDS011;15976;47.938;7.758;2022-12-07T04:45:18;13.55;;;6.93;;
28844;SDS011;15976;47.938;7.758;2022-12-07T04:47:45;11.93;;;6.68;;
28844;SDS011;15976;47.938;7.758;2022-12-07T04:50:12;12.73;;;6.70;;
28844;SDS011;15976;47.938;7.758;2022-12-07T04:52:39;10.35;;;6.53;;
28844;SDS011;15976;47.938;7.758;2022-12-07T04:55:06;13.82;;;7.13;;
28844;SDS011;15976;47.938;7.758;2022-12-07T04:57:37;11.70;;;6.70;;
28844;SDS011;15976;47.938;7.758;2022-12-07T05:00:04;11.75;;;6.57;;
28844;SDS011;15976;47.938;7.758;2022-12-07T05:02:32;12.10;;;7.00;;
28844;SDS011;15976;47.938;7.758;2022-12-07T05:04:59;8.98;;;5.82;;
28844;SDS011;15976;47.938;7.758;2022-12-07T05:07:26;9.80;;;5.55;;
28844;SDS011;15976;47.938;7.758;2022-12-07T05:09:53;8.15;;;5.30;;
28844;SDS011;15976;47.938;7.758;2022-12-07T05:12:20;6.40;;;4.20;;
28844;SDS011;15976;47.938;7.758;2022-12-07T05:14:47;7.35;;;4.50;;
28844;SDS011;15976;47.938;7.758;2022-12-07T05:17:14;6.85;;;4.32;;
28844;SDS011;15976;47.938;7.758;2022-12-07T05:19:43;7.18;;;4.35;;
28844;SDS011;15976;47.938;7.758;2022-12-07T05:22:10;6.53;;;3.65;;
28844;SDS011;15976;47.938;7.758;2022-12-07T05:24:37;6.72;;;3.92;;
28844;SDS011;15976;47.938;7.758;2022-12-07T05:27:04;17.65;;;11.40;;
28844;SDS011;15976;47.938;7.758;2022-12-07T05:29:31;24.90;;;15.63;;
28844;SDS011;15976;47.938;7.758;2022-12-07T05:31:58;28.48;;;17.48;;
28844;SDS011;15976;47.938;7.758;2022-12-07T05:34:25;50.22;;;30.40;;
28844;SDS011;15976;47.938;7.758;2022-12-07T05:36:52;33.50;;;22.70;;
28844;SDS011;15976;47.938;7.758;2022-12-07T05:39:20;22.98;;;18.90;;
28844;SDS011;15976;47.938;7.758;2022-12-07T05:41:47;9.00;;;7.20;;
28844;SDS011;15976;47.938;7.758;2022-12-07T05:44:32;7.70;;;5.25;;
28844;SDS011;15976;47.938;7.758;2022-12-07T05:46:59;8.25;;;5.18;;
28844;SDS011;15976;47.938;7.758;2022-12-07T05:49:26;7.95;;;5.50;;
28844;SDS011;15976;47.938;7.758;2022-12-07T05:51:53;8.43;;;4.70;;
28844;SDS011;15976;47.938;7.758;2022-12-07T05:54:21;8.00;;;5.38;;
28844;SDS011;15976;47.938;7.758;2022-12-07T05:56:48;7.03;;;5.28;;
28844;SDS011;15976;47.938;7.758;2022-12-07T05:59:15;7.38;;;5.68;;
28844;SDS011;15976;47.938;7.758;2022-12-07T06:01:57;9.45;;;5.15;;
28844;SDS011;15976;47.938;7.758;2022-12-07T06:04:27;8.50;;;5.28;;
28844;SDS011;15976;47.938;7.758;2022-12-07T06:06:57;8.52;;;6.88;;
28844;SDS011;15976;47.938;7.758;2022-12-07T06:09:26;7.85;;;5.30;;
28844;SDS011;15976;47.938;7.758;2022-12-07T06:11:54;5.95;;;3.65;;
28844;SDS011;15976;47.938;7.758;2022-12-07T06:14:40;7.82;;;4.72;;
28844;SDS011;15976;47.938;7.758;2022-12-07T06:17:07;10.55;;;4.80;;
28844;SDS011;15976;47.938;7.758;2022-12-07T06:19:34;5.57;;;3.47;;
28844;SDS011;15976;47.938;7.758;2022-12-07T06:22:02;5.07;;;3.80;;
28844;SDS011;15976;47.938;7.758;2022-12-07T06:24:31;5.78;;;3.63;;
28844;SDS011;15976;47.938;7.758;2022-12-07T06:26:58;4.88;;;3.40;;
28844;SDS011;15976;47.938;7.758;2022-12-07T06:29:26;6.47;;;4.25;;
28844;SDS011;15976;47.938;7.758;2022-12-07T06:31:53;6.43;;;3.80;;
28844;SDS011;15976;47.938;7.758;2022-12-07T06:34:22;7.18;;;3.83;;
28844;SDS011;15976;47.938;7.758;2022-12-07T06:36:51;5.47;;;3.05;;
28844;SDS011;15976;47.938;7.758;2022-12-07T06:39:23;7.07;;;3.65;;
28844;SDS011;15976;47.938;7.758;2022-12-07T06:41:51;5.40;;;3.22;;
28844;SDS011;15976;47.938;7.758;2022-12-07T06:44:24;5.63;;;3.63;;
28844;SDS011;15976;47.938;7.758;2022-12-07T06:46:52;6.20;;;3.80;;
28844;SDS011;15976;47.938;7.758;2022-12-07T06:52:48;6.03;;;3.30;;
28844;SDS011;15976;47.938;7.758;2022-12-07T06:55:43;13.77;;;6.93;;
28844;SDS011;15976;47.938;7.758;2022-12-07T06:58:23;7.97;;;4.95;;
28844;SDS011;15976;47.938;7.758;2022-12-07T07:04:26;4.45;;;2.85;;
28844;SDS011;15976;47.938;7.758;2022-12-07T07:07:18;4.72;;;3.05;;
28844;SDS011;15976;47.938;7.758;2022-12-07T07:09:53;5.10;;;3.10;;
28844;SDS011;15976;47.938;7.758;2022-12-07T07:12:28;8.43;;;4.65;;
28844;SDS011;15976;47.938;7.758;2022-12-07T07:15:05;7.07;;;4.53;;
28844;SDS011;15976;47.938;7.758;2022-12-07T07:17:42;14.43;;;7.55;;
28844;SDS011;15976;47.938;7.758;2022-12-07T07:20:20;15.35;;;8.75;;
28844;SDS011;15976;47.938;7.758;2022-12-07T07:22:57;11.80;;;7.70;;
28844;SDS011;15976;47.938;7.758;2022-12-07T07:26:07;11.02;;;6.05;;
28844;SDS011;15976;47.938;7.758;2022-12-07T07:28:49;11.13;;;7.07;;
28844;SDS011;15976;47.938;7.758;2022-12-07T07:31:21;10.60;;;6.55;;
28844;SDS011;15976;47.938;7.758;2022-12-07T07:33:56;8.45;;;5.65;;
28844;SDS011;15976;47.938;7.758;2022-12-07T07:36:29;9.25;;;5.68;;
28844;SDS011;15976;47.938;7.758;2022-12-07T07:39:07;12.10;;;6.28;;
28844;SDS011;15976;47.938;7.758;2022-12-07T07:41:45;11.57;;;6.28;;
28844;SDS011;15976;47.938;7.758;2022-12-07T07:44:41;12.13;;;7.28;;
28844;SDS011;15976;47.938;7.758;2022-12-07T07:47:17;15.70;;;8.00;;
28844;SDS011;15976;47.938;7.758;2022-12-07T07:49:55;14.10;;;8.07;;
28844;SDS011;15976;47.938;7.758;2022-12-07T07:58:33;20.30;;;11.38;;
28844;SDS011;15976;47.938;7.758;2022-12-07T08:01:06;19.33;;;11.40;;
28844;SDS011;15976;47.938;7.758;2022-12-07T08:03:34;22.58;;;12.75;;
28844;SDS011;15976;47.938;7.758;2022-12-07T08:06:04;24.30;;;14.05;;
28844;SDS011;15976;47.938;7.758;2022-12-07T08:08:32;23.35;;;12.65;;
28844;SDS011;15976;47.938;7.758;2022-12-07T08:10:59;19.00;;;12.18;;
28844;SDS011;15976;47.938;7.758;2022-12-07T08:13:27;26.25;;;13.93;;
28844;SDS011;15976;47.938;7.758;2022-12-07T08:15:57;29.63;;;17.02;;
28844;SDS011;15976;47.938;7.758;2022-12-07T08:18:24;26.85;;;14.88;;
28844;SDS011;15976;47.938;7.758;2022-12-07T08:20:51;29.52;;;17.08;;
28844;SDS011;15976;47.938;7.758;2022-12-07T08:23:18;33.95;;;18.60;;
28844;SDS011;15976;47.938;7.758;2022-12-07T08:25:51;36.78;;;20.63;;
28844;SDS011;15976;47.938;7.758;2022-12-07T08:28:18;34.83;;;19.30;;
28844;SDS011;15976;47.938;7.758;2022-12-07T08:30:45;35.70;;;21.42;;
28844;SDS011;15976;47.938;7.758;2022-12-07T08:33:12;44.70;;;23.10;;
28844;SDS011;15976;47.938;7.758;2022-12-07T08:35:39;43.85;;;22.42;;
28844;SDS011;15976;47.938;7.758;2022-12-07T08:38:06;44.85;;;24.27;;
28844;SDS011;15976;47.938;7.758;2022-12-07T08:40:33;39.33;;;23.60;;
28844;SDS011;15976;47.938;7.758;2022-12-07T08:43:01;49.65;;;26.02;;
28844;SDS011;15976;47.938;7.758;2022-12-07T08:45:29;38.78;;;21.48;;
28844;SDS011;15976;47.938;7.758;2022-12-07T08:48:03;39.33;;;21.98;;
28844;SDS011;15976;47.938;7.758;2022-12-07T08:50:33;36.25;;;21.60;;
28844;SDS011;15976;47.938;7.758;2022-12-07T08:53:02;35.13;;;20.83;;
28844;SDS011;15976;47.938;7.758;2022-12-07T08:55:31;36.63;;;21.35;;
28844;SDS011;15976;47.938;7.758;2022-12-07T08:58:02;36.03;;;22.23;;
28844;SDS011;15976;47.938;7.758;2022-12-07T09:00:30;30.52;;;21.15;;
28844;SDS011;15976;47.938;7.758;2022-12-07T09:02:57;28.45;;;17.98;;
28844;SDS011;15976;47.938;7.758;2022-12-07T09:05:25;22.60;;;13.05;;
28844;SDS011;15976;47.938;7.758;2022-12-07T09:07:54;19.65;;;12.57;;
28844;SDS011;15976;47.938;7.758;2022-12-07T09:13:20;21.30;;;12.80;;
28844;SDS011;15976;47.938;7.758;2022-12-07T09:15:47;19.85;;;11.23;;
28844;SDS011;15976;47.938;7.758;2022-12-07T09:18:14;17.25;;;10.45;;
28844;SDS011;15976;47.938;7.758;2022-12-07T09:20:40;17.48;;;10.00;;
28844;SDS011;15976;47.938;7.758;2022-12-07T09:23:07;19.33;;;10.77;;
28844;SDS011;15976;47.938;7.758;2022-12-07T09:25:34;16.27;;;9.80;;
28844;SDS011;15976;47.938;7.758;2022-12-07T09:28:02;17.10;;;10.38;;
28844;SDS011;15976;47.938;7.758;2022-12-07T09:30:29;17.50;;;10.60;;
28844;SDS011;15976;47.938;7.758;2022-12-07T09:32:56;20.48;;;11.88;;
28844;SDS011;15976;47.938;7.758;2022-12-07T09:35:24;90.38;;;54.13;;
28844;SDS011;15976;47.938;7.758;2022-12-07T09:37:52;73.90;;;42.75;;
28844;SDS011;15976;47.938;7.758;2022-12-07T09:40:20;57.97;;;35.85;;
28844;SDS011;15976;47.938;7.758;2022-12-07T09:42:51;36.33;;;22.33;;
28844;SDS011;15976;47.938;7.758;2022-12-07T09:45:25;28.23;;;16.77;;
28844;SDS011;15976;47.938;7.758;2022-12-07T09:47:57;25.90;;;14.60;;
28844;SDS011;15976;47.938;7.758;2022-12-07T09:50:27;18.30;;;11.05;;
28844;SDS011;15976;47.938;7.758;2022-12-07T09:53:03;19.67;;;12.02;;
28844;SDS011;15976;47.938;7.758;2022-12-07T09:55:36;18.08;;;11.48;;
28844;SDS011;15976;47.938;7.758;2022-12-07T09:58:04;32.08;;;18.30;;
28844;SDS011;15976;47.938;7.758;2022-12-07T10:00:31;23.30;;;12.80;;
28844;SDS011;15976;47.938;7.758;2022-12-07T10:02:59;29.75;;;15.65;;
28844;SDS011;15976;47.938;7.758;2022-12-07T10:05:30;25.30;;;13.90;;
28844;SDS011;15976;47.938;7.758;2022-12-07T10:08:10;23.38;;;13.48;;
28844;SDS011;15976;47.938;7.758;2022-12-07T10:10:39;30.23;;;15.70;;
28844;SDS011;15976;47.938;7.758;2022-12-07T10:13:14;35.13;;;17.02;;
28844;SDS011;15976;47.938;7.758;2022-12-07T10:15:53;52.20;;;28.35;;
28844;SDS011;15976;47.938;7.758;2022-12-07T10:18:36;51.10;;;28.15;;
28844;SDS011;15976;47.938;7.758;2022-12-07T10:23:38;17.30;;;10.27;;
28844;SDS011;15976;47.938;7.758;2022-12-07T10:26:31;16.35;;;9.80;;
28844;SDS011;15976;47.938;7.758;2022-12-07T10:29:02;14.35;;;8.60;;
28844;SDS011;15976;47.938;7.758;2022-12-07T10:31:52;15.77;;;9.85;;
28844;SDS011;15976;47.938;7.758;2022-12-07T10:36:53;14.05;;;9.07;;
28844;SDS011;15976;47.938;7.758;2022-12-07T10:39:39;14.77;;;9.40;;
28844;SDS011;15976;47.938;7.758;2022-12-07T10:42:09;15.25;;;8.43;;
28844;SDS011;15976;47.938;7.758;2022-12-07T10:44:50;15.82;;;8.95;;
28844;SDS011;15976;47.938;7.758;2022-12-07T10:47:36;14.48;;;8.20;;
28844;SDS011;15976;47.938;7.758;2022-12-07T11:01:48;8.93;;;6.10;;
28844;SDS011;15976;47.938;7.758;2022-12-07T11:04:33;11.82;;;7.28;;
28844;SDS011;15976;47.938;7.758;2022-12-07T11:07:20;11.52;;;6.70;;
28844;SDS011;15976;47.938;7.758;2022-12-07T11:10:23;12.68;;;7.63;;
28844;SDS011;15976;47.938;7.758;2022-12-07T11:16:01;11.90;;;7.38;;
28844;SDS011;15976;47.938;7.758;2022-12-07T11:21:24;9.27;;;6.18;;
28844;SDS011;15976;47.938;7.758;2022-12-07T11:24:15;9.88;;;6.00;;
28844;SDS011;15976;47.938;7.758;2022-12-07T11:37:37;13.25;;;6.35;;
28844;SDS011;15976;47.938;7.758;2022-12-07T11:46:12;10.20;;;4.82;;
28844;SDS011;15976;47.938;7.758;2022-12-07T11:48:46;5.68;;;4.00;;
28844;SDS011;15976;47.938;7.758;2022-12-07T11:51:21;7.10;;;4.55;;
28844;SDS011;15976;47.938;7.758;2022-12-07T11:53:58;6.60;;;4.22;;
28844;SDS011;15976;47.938;7.758;2022-12-07T11:56:38;11.75;;;5.10;;
28844;SDS011;15976;47.938;7.758;2022-12-07T12:06:52;8.38;;;4.82;;
28844;SDS011;15976;47.938;7.758;2022-12-07T12:09:30;8.05;;;5.00;;
28844;SDS011;15976;47.938;7.758;2022-12-07T12:21:27;7.45;;;5.00;;
28844;SDS011;15976;47.938;7.758;2022-12-07T12:26:33;8.60;;;5.47;;
28844;SDS011;15976;47.938;7.758;2022-12-07T12:34:04;7.55;;;4.40;;
28844;SDS011;15976;47.938;7.758;2022-12-07T12:36:51;8.57;;;4.05;;
28844;SDS011;15976;47.938;7.758;2022-12-07T12:39:18;5.75;;;3.53;;
28844;SDS011;15976;47.938;7.758;2022-12-07T12:46:48;6.85;;;5.00;;
28844;SDS011;15976;47.938;7.758;2022-12-07T12:57:05;8.00;;;4.93;;
28844;SDS011;15976;47.938;7.758;2022-12-07T13:05:29;11.40;;;6.53;;
28844;SDS011;15976;47.938;7.758;2022-12-07T13:07:58;10.05;;;5.35;;
28844;SDS011;15976;47.938;7.758;2022-12-07T13:15:45;8.23;;;4.82;;
28844;SDS011;15976;47.938;7.758;2022-12-07T13:31:49;3.13;;;2.67;;
28844;SDS011;15976;47.938;7.758;2022-12-07T13:34:29;5.63;;;3.15;;
28844;SDS011;15976;47.938;7.758;2022-12-07T13:36:58;8.15;;;4.63;;
28844;SDS011;15976;47.938;7.758;2022-12-07T13:39:28;4.15;;;3.00;;
28844;SDS011;15976;47.938;7.758;2022-12-07T13:41:57;4.78;;;3.22;;
28844;SDS011;15976;47.938;7.758;2022-12-07T13:44:26;3.63;;;2.90;;
28844;SDS011;15976;47.938;7.758;2022-12-07T13:49:28;3.88;;;2.70;;
28844;SDS011;15976;47.938;7.758;2022-12-07T13:52:12;3.08;;;2.35;;
28844;SDS011;15976;47.938;7.758;2022-12-07T13:57:35;9.10;;;5.53;;
28844;SDS011;15976;47.938;7.758;2022-12-07T14:00:03;4.20;;;2.78;;
28844;SDS011;15976;47.938;7.758;2022-12-07T14:02:53;10.68;;;6.22;;
28844;SDS011;15976;47.938;7.758;2022-12-07T14:05:30;5.57;;;3.22;;
28844;SDS011;15976;47.938;7.758;2022-12-07T14:08:00;3.90;;;2.90;;
28844;SDS011;15976;47.938;7.758;2022-12-07T14:13:33;5.78;;;2.92;;
28844;SDS011;15976;47.938;7.758;2022-12-07T14:16:06;6.00;;;2.83;;
28844;SDS011;15976;47.938;7.758;2022-12-07T14:18:52;7.90;;;4.32;;
28844;SDS011;15976;47.938;7.758;2022-12-07T14:21:21;5.70;;;3.75;;
28844;SDS011;15976;47.938;7.758;2022-12-07T14:26:29;4.78;;;3.58;;
28844;SDS011;15976;47.938;7.758;2022-12-07T14:29:18;6.10;;;3.63;;
28844;SDS011;15976;47.938;7.758;2022-12-07T14:31:47;6.53;;;4.28;;
28844;SDS011;15976;47.938;7.758;2022-12-07T14:34:14;5.75;;;4.18;;
28844;SDS011;15976;47.938;7.758;2022-12-07T14:36:41;6.25;;;4.00;;
28844;SDS011;15976;47.938;7.758;2022-12-07T14:39:08;10.52;;;4.60;;
28844;SDS011;15976;47.938;7.758;2022-12-07T14:41:39;14.88;;;5.70;;
28844;SDS011;15976;47.938;7.758;2022-12-07T14:44:27;9.13;;;4.38;;
28844;SDS011;15976;47.938;7.758;2022-12-07T14:47:01;14.10;;;5.97;;
28844;SDS011;15976;47.938;7.758;2022-12-07T14:49:48;6.63;;;3.92;;
28844;SDS011;15976;47.938;7.758;2022-12-07T14:52:19;6.38;;;4.20;;
28844;SDS011;15976;47.938;7.758;2022-12-07T14:55:13;7.05;;;4.57;;
28844;SDS011;15976;47.938;7.758;2022-12-07T14:57:49;15.55;;;7.45;;
28844;SDS011;15976;47.938;7.758;2022-12-07T15:00:16;23.85;;;8.73;;
28844;SDS011;15976;47.938;7.758;2022-12-07T15:02:44;56.75;;;16.60;;
28844;SDS011;15976;47.938;7.758;2022-12-07T15:05:12;31.20;;;10.82;;
28844;SDS011;15976;47.938;7.758;2022-12-07T15:07:46;26.55;;;10.55;;
28844;SDS011;15976;47.938;7.758;2022-12-07T15:10:24;11.60;;;5.90;;
28844;SDS011;15976;47.938;7.758;2022-12-07T15:13:01;18.83;;;9.38;;
28844;SDS011;15976;47.938;7.758;2022-12-07T15:15:51;35.03;;;14.82;;
28844;SDS011;15976;47.938;7.758;2022-12-07T15:18:20;23.10;;;9.50;;
28844;SDS011;15976;47.938;7.758;2022-12-07T15:20:49;12.93;;;7.25;;
28844;SDS011;15976;47.938;7.758;2022-12-07T15:23:16;77.32;;;23.27;;
28844;SDS011;15976;47.938;7.758;2022-12-07T15:25:43;18.70;;;8.18;;
28844;SDS011;15976;47.938;7.758;2022-12-07T15:28:13;21.45;;;9.65;;
28844;SDS011;15976;47.938;7.758;2022-12-07T15:30:41;14.40;;;7.93;;
28844;SDS011;15976;47.938;7.758;2022-12-07T15:33:10;16.70;;;8.68;;
28844;SDS011;15976;47.938;7.758;2022-12-07T15:35:41;26.50;;;11.80;;
28844;SDS011;15976;47.938;7.758;2022-12-07T15:38:11;18.77;;;10.10;;
28844;SDS011;15976;47.938;7.758;2022-12-07T15:40:38;11.23;;;7.28;;
28844;SDS011;15976;47.938;7.758;2022-12-07T15:43:05;19.98;;;10.65;;
28844;SDS011;15976;47.938;7.758;2022-12-07T15:45:54;24.20;;;11.43;;
28844;SDS011;15976;47.938;7.758;2022-12-07T15:48:21;17.15;;;9.48;;
28844;SDS011;15976;47.938;7.758;2022-12-07T15:51:01;17.80;;;9.45;;
28844;SDS011;15976;47.938;7.758;2022-12-07T15:53:32;18.60;;;9.18;;
28844;SDS011;15976;47.938;7.758;2022-12-07T15:55:59;14.45;;;8.70;;
28844;SDS011;15976;47.938;7.758;2022-12-07T15:58:27;14.45;;;8.05;;
28844;SDS011;15976;47.938;7.758;2022-12-07T16:00:54;14.50;;;8.20;;
28844;SDS011;15976;47.938;7.758;2022-12-07T16:03:24;17.02;;;9.30;;
28844;SDS011;15976;47.938;7.758;2022-12-07T16:05:55;16.17;;;9.45;;
28844;SDS011;15976;47.938;7.758;2022-12-07T16:08:26;18.33;;;10.40;;
28844;SDS011;15976;47.938;7.758;2022-12-07T16:11:05;23.55;;;12.63;;
28844;SDS011;15976;47.938;7.758;2022-12-07T16:13:33;16.27;;;10.50;;
28844;SDS011;15976;47.938;7.758;2022-12-07T16:16:04;17.67;;;10.38;;
28844;SDS011;15976;47.938;7.758;2022-12-07T16:18:37;19.45;;;10.50;;
28844;SDS011;15976;47.938;7.758;2022-12-07T16:21:04;14.70;;;8.63;;
28844;SDS011;15976;47.938;7.758;2022-12-07T16:23:31;15.05;;;6.40;;
28844;SDS011;15976;47.938;7.758;2022-12-07T16:26:08;21.08;;;10.05;;
28844;SDS011;15976;47.938;7.758;2022-12-07T16:28:43;21.70;;;11.20;;
28844;SDS011;15976;47.938;7.758;2022-12-07T16:31:14;11.77;;;7.18;;
28844;SDS011;15976;47.938;7.758;2022-12-07T16:33:43;16.05;;;8.18;;
28844;SDS011;15976;47.938;7.758;2022-12-07T16:36:11;12.38;;;6.55;;
28844;SDS011;15976;47.938;7.758;2022-12-07T16:39:02;9.35;;;5.70;;
28844;SDS011;15976;47.938;7.758;2022-12-07T16:41:30;9.32;;;5.93;;
28844;SDS011;15976;47.938;7.758;2022-12-07T16:43:57;11.50;;;6.68;;
28844;SDS011;15976;47.938;7.758;2022-12-07T16:46:31;14.38;;;7.28;;
28844;SDS011;15976;47.938;7.758;2022-12-07T16:48:59;18.05;;;9.98;;
28844;SDS011;15976;47.938;7.758;2022-12-07T16:51:26;12.85;;;7.63;;
28844;SDS011;15976;47.938;7.758;2022-12-07T16:53:54;19.75;;;10.75;;
28844;SDS011;15976;47.938;7.758;2022-12-07T16:56:21;16.45;;;10.60;;
28844;SDS011;15976;47.938;7.758;2022-12-07T16:58:48;13.90;;;9.27;;
28844;SDS011;15976;47.938;7.758;2022-12-07T17:01:20;12.60;;;7.30;;
28844;SDS011;15976;47.938;7.758;2022-12-07T17:06:17;23.42;;;12.75;;
28844;SDS011;15976;47.938;7.758;2022-12-07T17:08:46;19.83;;;12.20;;
28844;SDS011;15976;47.938;7.758;2022-12-07T17:11:16;25.25;;;16.17;;
28844;SDS011;15976;47.938;7.758;2022-12-07T17:13:48;22.35;;;14.65;;
28844;SDS011;15976;47.938;7.758;2022-12-07T17:16:34;21.90;;;12.50;;
28844;SDS011;15976;47.938;7.758;2022-12-07T17:19:05;30.95;;;20.48;;
28844;SDS011;15976;47.938;7.758;2022-12-07T17:21:33;34.67;;;20.42;;
28844;SDS011;15976;47.938;7.758;2022-12-07T17:24:01;22.80;;;14.50;;
28844;SDS011;15976;47.938;7.758;2022-12-07T17:26:29;11.85;;;6.93;;
28844;SDS011;15976;47.938;7.758;2022-12-07T17:29:13;25.35;;;12.90;;
28844;SDS011;15976;47.938;7.758;2022-12-07T17:31:56;14.63;;;8.65;;
28844;SDS011;15976;47.938;7.758;2022-12-07T17:34:26;15.43;;;8.93;;
28844;SDS011;15976;47.938;7.758;2022-12-07T17:36:53;10.65;;;6.50;;
28844;SDS011;15976;47.938;7.758;2022-12-07T17:39:21;25.10;;;13.55;;
28844;SDS011;15976;47.938;7.758;2022-12-07T17:41:49;26.00;;;13.23;;
28844;SDS011;15976;47.938;7.758;2022-12-07T17:44:34;33.03;;;15.65;;
28844;SDS011;15976;47.938;7.758;2022-12-07T17:47:02;38.45;;;19.67;;
28844;SDS011;15976;47.938;7.758;2022-12-07T17:49:29;44.20;;;21.98;;
28844;SDS011;15976;47.938;7.758;2022-12-07T17:51:58;35.30;;;16.25;;
28844;SDS011;15976;47.938;7.758;2022-12-07T17:54:44;23.08;;;11.85;;